LTCK/MSR METAR and TAF weather

Enter ICAO airport designator
Station Type Date Time Source
LTCK METAR 2019/08/25 13:50 UTC NOAA

LTCK 251350Z 27010KT 9999 SCT035 32/05 Q1015


Station Type Date Time Source
LTCK Decoded METAR 2019/08/25 13:50 UTC NOAA

Station name not available
Aug 25, 2019 - 09:50 AM EDT / 2019.08.25 1350 UTC
Wind: from the W (270 degrees) at 12 MPH (10 KT):0
Visibility: greater than 7 mile(s):0
Sky conditions: partly cloudy
Temperature: 89 F (32 C)
Dew Point: 41 F (5 C)
Relative Humidity: 18%
Pressure (altimeter): 29.97 in. Hg (1015 hPa)
ob: LTCK 251350Z 27010KT 9999 SCT035 32/05 Q1015
cycle: 14

Station Type Date Time Source
LTCK TAF UTC NOAA

Error!

Example: see airport list